sensor_id;sensor_type;location;lat;lon;timestamp;P1;durP1;ratioP1;P2;durP2;ratioP2
5483;SDS011;2764;48.794;8.326;2022-08-19T00:00:39;20.73;;;18.30;;
5483;SDS011;2764;48.794;8.326;2022-08-19T00:01:41;18.13;;;16.33;;
5483;SDS011;2764;48.794;8.326;2022-08-19T00:02:53;18.53;;;16.67;;
5483;SDS011;2764;48.794;8.326;2022-08-19T00:03:56;18.43;;;16.53;;
5483;SDS011;2764;48.794;8.326;2022-08-19T00:05:01;17.80;;;16.07;;
5483;SDS011;2764;48.794;8.326;2022-08-19T00:06:03;17.77;;;16.17;;
5483;SDS011;2764;48.794;8.326;2022-08-19T00:07:05;18.30;;;16.50;;
5483;SDS011;2764;48.794;8.326;2022-08-19T00:08:07;15.37;;;14.07;;
5483;SDS011;2764;48.794;8.326;2022-08-19T00:09:10;16.93;;;15.43;;
5483;SDS011;2764;48.794;8.326;2022-08-19T00:10:14;19.70;;;16.30;;
5483;SDS011;2764;48.794;8.326;2022-08-19T00:11:16;17.00;;;15.47;;
5483;SDS011;2764;48.794;8.326;2022-08-19T00:12:26;18.27;;;16.50;;
5483;SDS011;2764;48.794;8.326;2022-08-19T00:13:28;19.60;;;17.70;;
5483;SDS011;2764;48.794;8.326;2022-08-19T00:14:30;18.17;;;16.57;;
5483;SDS011;2764;48.794;8.326;2022-08-19T00:15:32;21.53;;;19.30;;
5483;SDS011;2764;48.794;8.326;2022-08-19T00:16:34;19.63;;;17.83;;
5483;SDS011;2764;48.794;8.326;2022-08-19T00:17:37;20.27;;;18.20;;
5483;SDS011;2764;48.794;8.326;2022-08-19T00:18:42;18.70;;;16.93;;
5483;SDS011;2764;48.794;8.326;2022-08-19T00:19:43;19.40;;;17.00;;
5483;SDS011;2764;48.794;8.326;2022-08-19T00:20:45;19.10;;;17.13;;
5483;SDS011;2764;48.794;8.326;2022-08-19T00:21:47;19.83;;;17.33;;
5483;SDS011;2764;48.794;8.326;2022-08-19T00:22:48;17.73;;;16.23;;
5483;SDS011;2764;48.794;8.326;2022-08-19T00:23:50;18.47;;;16.87;;
5483;SDS011;2764;48.794;8.326;2022-08-19T00:24:52;18.73;;;17.00;;
5483;SDS011;2764;48.794;8.326;2022-08-19T00:25:54;18.13;;;16.33;;
5483;SDS011;2764;48.794;8.326;2022-08-19T00:26:56;18.87;;;16.87;;
5483;SDS011;2764;48.794;8.326;2022-08-19T00:28:19;18.40;;;16.70;;
5483;SDS011;2764;48.794;8.326;2022-08-19T00:29:22;19.60;;;17.50;;
5483;SDS011;2764;48.794;8.326;2022-08-19T00:30:25;19.13;;;17.33;;
5483;SDS011;2764;48.794;8.326;2022-08-19T00:31:28;20.30;;;18.17;;
5483;SDS011;2764;48.794;8.326;2022-08-19T00:32:30;20.23;;;17.50;;
5483;SDS011;2764;48.794;8.326;2022-08-19T00:33:33;19.97;;;17.93;;
5483;SDS011;2764;48.794;8.326;2022-08-19T00:34:35;17.63;;;15.93;;
5483;SDS011;2764;48.794;8.326;2022-08-19T00:35:36;19.77;;;17.80;;
5483;SDS011;2764;48.794;8.326;2022-08-19T00:36:40;19.10;;;17.20;;
5483;SDS011;2764;48.794;8.326;2022-08-19T00:37:42;20.67;;;18.80;;
5483;SDS011;2764;48.794;8.326;2022-08-19T00:38:45;18.67;;;16.97;;
5483;SDS011;2764;48.794;8.326;2022-08-19T00:39:47;18.67;;;16.83;;
5483;SDS011;2764;48.794;8.326;2022-08-19T00:40:49;18.03;;;16.33;;
5483;SDS011;2764;48.794;8.326;2022-08-19T00:41:51;18.70;;;16.80;;
5483;SDS011;2764;48.794;8.326;2022-08-19T00:42:53;19.13;;;17.33;;
5483;SDS011;2764;48.794;8.326;2022-08-19T00:45:02;19.70;;;16.47;;
5483;SDS011;2764;48.794;8.326;2022-08-19T00:46:11;16.37;;;14.93;;
5483;SDS011;2764;48.794;8.326;2022-08-19T00:47:13;16.80;;;15.30;;
5483;SDS011;2764;48.794;8.326;2022-08-19T00:48:17;17.50;;;15.90;;
5483;SDS011;2764;48.794;8.326;2022-08-19T00:49:50;17.67;;;16.07;;
5483;SDS011;2764;48.794;8.326;2022-08-19T00:50:53;19.97;;;17.70;;
5483;SDS011;2764;48.794;8.326;2022-08-19T00:51:59;18.60;;;16.80;;
5483;SDS011;2764;48.794;8.326;2022-08-19T00:53:04;19.63;;;17.57;;
5483;SDS011;2764;48.794;8.326;2022-08-19T00:54:05;20.70;;;18.60;;
5483;SDS011;2764;48.794;8.326;2022-08-19T00:55:07;21.10;;;17.30;;
5483;SDS011;2764;48.794;8.326;2022-08-19T00:56:12;18.20;;;16.60;;
5483;SDS011;2764;48.794;8.326;2022-08-19T00:57:15;19.70;;;17.90;;
5483;SDS011;2764;48.794;8.326;2022-08-19T00:58:20;19.43;;;17.17;;
5483;SDS011;2764;48.794;8.326;2022-08-19T00:59:25;20.47;;;18.47;;
5483;SDS011;2764;48.794;8.326;2022-08-19T01:00:49;19.37;;;17.40;;
5483;SDS011;2764;48.794;8.326;2022-08-19T01:01:50;19.70;;;17.67;;
5483;SDS011;2764;48.794;8.326;2022-08-19T01:02:53;18.50;;;16.73;;
5483;SDS011;2764;48.794;8.326;2022-08-19T01:03:55;19.47;;;17.67;;
5483;SDS011;2764;48.794;8.326;2022-08-19T01:04:59;18.47;;;16.77;;
5483;SDS011;2764;48.794;8.326;2022-08-19T01:06:04;19.27;;;17.33;;
5483;SDS011;2764;48.794;8.326;2022-08-19T01:07:06;18.80;;;16.90;;
5483;SDS011;2764;48.794;8.326;2022-08-19T01:08:15;19.47;;;17.67;;
5483;SDS011;2764;48.794;8.326;2022-08-19T01:09:19;20.20;;;18.30;;
5483;SDS011;2764;48.794;8.326;2022-08-19T01:10:22;18.23;;;16.50;;
5483;SDS011;2764;48.794;8.326;2022-08-19T01:11:34;19.50;;;17.40;;
5483;SDS011;2764;48.794;8.326;2022-08-19T01:12:38;21.47;;;18.27;;
5483;SDS011;2764;48.794;8.326;2022-08-19T01:13:40;19.17;;;16.90;;
5483;SDS011;2764;48.794;8.326;2022-08-19T01:14:49;17.83;;;16.13;;
5483;SDS011;2764;48.794;8.326;2022-08-19T01:15:54;18.50;;;16.67;;
5483;SDS011;2764;48.794;8.326;2022-08-19T01:17:05;19.77;;;17.90;;
5483;SDS011;2764;48.794;8.326;2022-08-19T01:18:11;20.03;;;18.10;;
5483;SDS011;2764;48.794;8.326;2022-08-19T01:20:45;18.90;;;17.10;;
5483;SDS011;2764;48.794;8.326;2022-08-19T01:21:49;17.30;;;15.60;;
5483;SDS011;2764;48.794;8.326;2022-08-19T01:23:16;20.50;;;18.50;;
5483;SDS011;2764;48.794;8.326;2022-08-19T01:24:18;21.30;;;18.40;;
5483;SDS011;2764;48.794;8.326;2022-08-19T01:25:22;19.47;;;17.67;;
5483;SDS011;2764;48.794;8.326;2022-08-19T01:26:29;19.90;;;17.90;;
5483;SDS011;2764;48.794;8.326;2022-08-19T01:27:41;19.00;;;17.20;;
5483;SDS011;2764;48.794;8.326;2022-08-19T01:28:47;19.07;;;17.27;;
5483;SDS011;2764;48.794;8.326;2022-08-19T01:29:52;20.33;;;18.40;;
5483;SDS011;2764;48.794;8.326;2022-08-19T01:30:53;19.13;;;17.43;;
5483;SDS011;2764;48.794;8.326;2022-08-19T01:31:56;18.60;;;16.73;;
5483;SDS011;2764;48.794;8.326;2022-08-19T01:32:59;19.50;;;17.60;;
5483;SDS011;2764;48.794;8.326;2022-08-19T01:34:01;20.23;;;17.63;;
5483;SDS011;2764;48.794;8.326;2022-08-19T01:35:04;20.40;;;18.20;;
5483;SDS011;2764;48.794;8.326;2022-08-19T01:36:07;20.03;;;18.07;;
5483;SDS011;2764;48.794;8.326;2022-08-19T01:37:12;21.23;;;18.00;;
5483;SDS011;2764;48.794;8.326;2022-08-19T01:38:26;16.80;;;15.20;;
5483;SDS011;2764;48.794;8.326;2022-08-19T01:39:28;20.67;;;16.53;;
5483;SDS011;2764;48.794;8.326;2022-08-19T01:40:30;20.13;;;17.83;;
5483;SDS011;2764;48.794;8.326;2022-08-19T01:41:34;20.00;;;17.90;;
5483;SDS011;2764;48.794;8.326;2022-08-19T01:42:36;19.73;;;17.63;;
5483;SDS011;2764;48.794;8.326;2022-08-19T01:43:38;20.13;;;18.10;;
5483;SDS011;2764;48.794;8.326;2022-08-19T01:44:59;19.33;;;17.53;;
5483;SDS011;2764;48.794;8.326;2022-08-19T01:46:02;19.43;;;17.47;;
5483;SDS011;2764;48.794;8.326;2022-08-19T01:47:04;19.70;;;17.30;;
5483;SDS011;2764;48.794;8.326;2022-08-19T01:48:06;19.73;;;17.83;;
5483;SDS011;2764;48.794;8.326;2022-08-19T01:49:08;18.07;;;16.47;;
5483;SDS011;2764;48.794;8.326;2022-08-19T01:50:11;21.40;;;19.20;;
5483;SDS011;2764;48.794;8.326;2022-08-19T01:51:14;17.80;;;16.10;;
5483;SDS011;2764;48.794;8.326;2022-08-19T01:52:16;23.13;;;17.00;;
5483;SDS011;2764;48.794;8.326;2022-08-19T01:53:18;19.10;;;17.30;;
5483;SDS011;2764;48.794;8.326;2022-08-19T01:54:21;18.43;;;16.50;;
5483;SDS011;2764;48.794;8.326;2022-08-19T01:55:28;22.23;;;17.17;;
5483;SDS011;2764;48.794;8.326;2022-08-19T01:56:29;19.23;;;17.43;;
5483;SDS011;2764;48.794;8.326;2022-08-19T01:57:31;20.33;;;16.50;;
5483;SDS011;2764;48.794;8.326;2022-08-19T01:58:38;19.23;;;17.20;;
5483;SDS011;2764;48.794;8.326;2022-08-19T01:59:47;17.40;;;15.90;;
5483;SDS011;2764;48.794;8.326;2022-08-19T02:00:48;20.20;;;18.30;;
5483;SDS011;2764;48.794;8.326;2022-08-19T02:01:50;20.80;;;18.30;;
5483;SDS011;2764;48.794;8.326;2022-08-19T02:02:52;19.53;;;17.63;;
5483;SDS011;2764;48.794;8.326;2022-08-19T02:03:53;19.47;;;17.67;;
5483;SDS011;2764;48.794;8.326;2022-08-19T02:04:58;18.43;;;16.70;;
5483;SDS011;2764;48.794;8.326;2022-08-19T02:06:00;19.07;;;17.20;;
5483;SDS011;2764;48.794;8.326;2022-08-19T02:07:04;22.77;;;17.50;;
5483;SDS011;2764;48.794;8.326;2022-08-19T02:08:09;23.50;;;17.30;;
5483;SDS011;2764;48.794;8.326;2022-08-19T02:09:11;19.33;;;17.33;;
5483;SDS011;2764;48.794;8.326;2022-08-19T02:10:14;18.03;;;16.40;;
5483;SDS011;2764;48.794;8.326;2022-08-19T02:11:24;17.77;;;16.20;;
5483;SDS011;2764;48.794;8.326;2022-08-19T02:12:28;20.03;;;17.97;;
5483;SDS011;2764;48.794;8.326;2022-08-19T02:13:31;20.83;;;17.40;;
5483;SDS011;2764;48.794;8.326;2022-08-19T02:14:34;21.47;;;18.80;;
5483;SDS011;2764;48.794;8.326;2022-08-19T02:15:37;19.00;;;17.20;;
5483;SDS011;2764;48.794;8.326;2022-08-19T02:16:39;19.97;;;17.97;;
5483;SDS011;2764;48.794;8.326;2022-08-19T02:17:41;19.50;;;17.60;;
5483;SDS011;2764;48.794;8.326;2022-08-19T02:18:43;20.23;;;18.23;;
5483;SDS011;2764;48.794;8.326;2022-08-19T02:19:45;20.93;;;18.80;;
5483;SDS011;2764;48.794;8.326;2022-08-19T02:20:47;18.87;;;17.03;;
5483;SDS011;2764;48.794;8.326;2022-08-19T02:21:49;18.93;;;17.23;;
5483;SDS011;2764;48.794;8.326;2022-08-19T02:22:50;19.43;;;17.50;;
5483;SDS011;2764;48.794;8.326;2022-08-19T02:23:52;18.23;;;16.57;;
5483;SDS011;2764;48.794;8.326;2022-08-19T02:24:55;18.07;;;16.47;;
5483;SDS011;2764;48.794;8.326;2022-08-19T02:25:56;19.47;;;17.57;;
5483;SDS011;2764;48.794;8.326;2022-08-19T02:26:58;18.50;;;16.73;;
5483;SDS011;2764;48.794;8.326;2022-08-19T02:28:00;21.77;;;19.57;;
5483;SDS011;2764;48.794;8.326;2022-08-19T02:29:02;20.57;;;18.30;;
5483;SDS011;2764;48.794;8.326;2022-08-19T02:30:05;22.40;;;20.00;;
5483;SDS011;2764;48.794;8.326;2022-08-19T02:31:15;21.30;;;19.10;;
5483;SDS011;2764;48.794;8.326;2022-08-19T02:32:20;20.77;;;18.57;;
5483;SDS011;2764;48.794;8.326;2022-08-19T02:33:21;21.27;;;19.17;;
5483;SDS011;2764;48.794;8.326;2022-08-19T02:34:23;20.20;;;18.30;;
5483;SDS011;2764;48.794;8.326;2022-08-19T02:35:26;19.63;;;17.83;;
5483;SDS011;2764;48.794;8.326;2022-08-19T02:36:28;19.07;;;17.17;;
5483;SDS011;2764;48.794;8.326;2022-08-19T02:37:30;19.53;;;17.73;;
5483;SDS011;2764;48.794;8.326;2022-08-19T02:38:51;23.63;;;17.47;;
5483;SDS011;2764;48.794;8.326;2022-08-19T02:39:55;20.40;;;18.20;;
5483;SDS011;2764;48.794;8.326;2022-08-19T02:40:58;20.40;;;18.30;;
5483;SDS011;2764;48.794;8.326;2022-08-19T02:42:02;20.70;;;18.60;;
5483;SDS011;2764;48.794;8.326;2022-08-19T02:43:06;19.73;;;17.73;;
5483;SDS011;2764;48.794;8.326;2022-08-19T02:44:09;21.27;;;18.80;;
5483;SDS011;2764;48.794;8.326;2022-08-19T02:45:31;20.60;;;18.50;;
5483;SDS011;2764;48.794;8.326;2022-08-19T02:46:34;23.97;;;19.30;;
5483;SDS011;2764;48.794;8.326;2022-08-19T02:47:37;21.43;;;19.03;;
5483;SDS011;2764;48.794;8.326;2022-08-19T02:48:42;20.70;;;18.47;;
5483;SDS011;2764;48.794;8.326;2022-08-19T02:49:45;20.70;;;18.30;;
5483;SDS011;2764;48.794;8.326;2022-08-19T02:50:47;20.17;;;18.20;;
5483;SDS011;2764;48.794;8.326;2022-08-19T02:51:54;20.20;;;18.20;;
5483;SDS011;2764;48.794;8.326;2022-08-19T02:52:56;20.97;;;18.97;;
5483;SDS011;2764;48.794;8.326;2022-08-19T02:53:57;22.13;;;19.13;;
5483;SDS011;2764;48.794;8.326;2022-08-19T02:55:01;22.60;;;20.40;;
5483;SDS011;2764;48.794;8.326;2022-08-19T02:56:05;20.47;;;17.53;;
5483;SDS011;2764;48.794;8.326;2022-08-19T02:57:08;21.87;;;19.57;;
5483;SDS011;2764;48.794;8.326;2022-08-19T02:58:10;21.60;;;18.97;;
5483;SDS011;2764;48.794;8.326;2022-08-19T02:59:11;20.57;;;18.57;;
5483;SDS011;2764;48.794;8.326;2022-08-19T03:00:13;25.40;;;19.03;;
5483;SDS011;2764;48.794;8.326;2022-08-19T03:01:20;21.57;;;19.47;;
5483;SDS011;2764;48.794;8.326;2022-08-19T03:02:22;19.77;;;17.87;;
5483;SDS011;2764;48.794;8.326;2022-08-19T03:03:24;21.03;;;19.00;;
5483;SDS011;2764;48.794;8.326;2022-08-19T03:04:26;22.27;;;20.00;;
5483;SDS011;2764;48.794;8.326;2022-08-19T03:05:28;22.43;;;19.93;;
5483;SDS011;2764;48.794;8.326;2022-08-19T03:06:50;24.23;;;19.23;;
5483;SDS011;2764;48.794;8.326;2022-08-19T03:07:51;21.90;;;19.70;;
5483;SDS011;2764;48.794;8.326;2022-08-19T03:08:53;21.50;;;19.30;;
5483;SDS011;2764;48.794;8.326;2022-08-19T03:09:55;24.30;;;20.03;;
5483;SDS011;2764;48.794;8.326;2022-08-19T03:10:56;22.00;;;19.67;;
5483;SDS011;2764;48.794;8.326;2022-08-19T03:11:58;20.43;;;18.53;;
5483;SDS011;2764;48.794;8.326;2022-08-19T03:13:00;22.63;;;18.27;;
5483;SDS011;2764;48.794;8.326;2022-08-19T03:14:05;20.33;;;18.43;;
5483;SDS011;2764;48.794;8.326;2022-08-19T03:15:08;19.57;;;17.77;;
5483;SDS011;2764;48.794;8.326;2022-08-19T03:16:11;18.80;;;16.80;;
5483;SDS011;2764;48.794;8.326;2022-08-19T03:17:14;20.97;;;18.97;;
5483;SDS011;2764;48.794;8.326;2022-08-19T03:18:15;21.13;;;19.13;;
5483;SDS011;2764;48.794;8.326;2022-08-19T03:19:18;20.87;;;18.83;;
5483;SDS011;2764;48.794;8.326;2022-08-19T03:20:22;20.90;;;18.90;;
5483;SDS011;2764;48.794;8.326;2022-08-19T03:21:24;20.53;;;18.50;;
5483;SDS011;2764;48.794;8.326;2022-08-19T03:22:27;21.43;;;19.20;;
5483;SDS011;2764;48.794;8.326;2022-08-19T03:23:32;22.17;;;19.87;;
5483;SDS011;2764;48.794;8.326;2022-08-19T03:24:33;21.00;;;18.90;;
5483;SDS011;2764;48.794;8.326;2022-08-19T03:25:36;24.37;;;19.50;;
5483;SDS011;2764;48.794;8.326;2022-08-19T03:26:43;23.03;;;20.73;;
5483;SDS011;2764;48.794;8.326;2022-08-19T03:27:47;21.93;;;19.33;;
5483;SDS011;2764;48.794;8.326;2022-08-19T03:28:50;20.90;;;18.73;;
5483;SDS011;2764;48.794;8.326;2022-08-19T03:29:59;25.27;;;21.00;;
5483;SDS011;2764;48.794;8.326;2022-08-19T03:31:02;22.33;;;20.13;;
5483;SDS011;2764;48.794;8.326;2022-08-19T03:32:27;22.40;;;20.10;;
5483;SDS011;2764;48.794;8.326;2022-08-19T03:33:33;23.10;;;20.83;;
5483;SDS011;2764;48.794;8.326;2022-08-19T03:34:36;23.20;;;20.60;;
5483;SDS011;2764;48.794;8.326;2022-08-19T03:35:38;23.60;;;21.40;;
5483;SDS011;2764;48.794;8.326;2022-08-19T03:36:40;24.60;;;22.00;;
5483;SDS011;2764;48.794;8.326;2022-08-19T03:37:42;22.50;;;20.20;;
5483;SDS011;2764;48.794;8.326;2022-08-19T03:38:45;22.07;;;19.77;;
5483;SDS011;2764;48.794;8.326;2022-08-19T03:39:56;21.83;;;19.63;;
5483;SDS011;2764;48.794;8.326;2022-08-19T03:40:58;23.90;;;21.40;;
5483;SDS011;2764;48.794;8.326;2022-08-19T03:42:04;24.23;;;21.73;;
5483;SDS011;2764;48.794;8.326;2022-08-19T03:43:26;23.10;;;20.63;;
5483;SDS011;2764;48.794;8.326;2022-08-19T03:44:28;20.57;;;18.47;;
5483;SDS011;2764;48.794;8.326;2022-08-19T03:45:31;20.77;;;18.60;;
5483;SDS011;2764;48.794;8.326;2022-08-19T03:46:33;22.13;;;19.97;;
5483;SDS011;2764;48.794;8.326;2022-08-19T03:47:34;23.03;;;20.63;;
5483;SDS011;2764;48.794;8.326;2022-08-19T03:48:36;22.27;;;19.87;;
5483;SDS011;2764;48.794;8.326;2022-08-19T03:49:39;23.57;;;20.50;;
5483;SDS011;2764;48.794;8.326;2022-08-19T03:50:42;23.27;;;20.73;;
5483;SDS011;2764;48.794;8.326;2022-08-19T03:51:45;23.57;;;21.03;;
5483;SDS011;2764;48.794;8.326;2022-08-19T03:52:48;22.77;;;20.47;;
5483;SDS011;2764;48.794;8.326;2022-08-19T03:53:53;23.13;;;20.63;;
5483;SDS011;2764;48.794;8.326;2022-08-19T03:54:56;23.10;;;20.67;;
5483;SDS011;2764;48.794;8.326;2022-08-19T03:55:58;24.20;;;21.60;;
5483;SDS011;2764;48.794;8.326;2022-08-19T03:57:02;23.57;;;21.07;;
5483;SDS011;2764;48.794;8.326;2022-08-19T03:58:05;22.17;;;19.90;;
5483;SDS011;2764;48.794;8.326;2022-08-19T03:59:10;25.37;;;21.97;;
5483;SDS011;2764;48.794;8.326;2022-08-19T04:00:21;25.10;;;19.17;;
5483;SDS011;2764;48.794;8.326;2022-08-19T04:01:24;22.80;;;20.50;;
5483;SDS011;2764;48.794;8.326;2022-08-19T04:02:35;24.20;;;21.70;;
5483;SDS011;2764;48.794;8.326;2022-08-19T04:03:37;24.93;;;20.60;;
5483;SDS011;2764;48.794;8.326;2022-08-19T04:04:42;22.07;;;19.87;;
5483;SDS011;2764;48.794;8.326;2022-08-19T04:05:45;25.77;;;22.80;;
5483;SDS011;2764;48.794;8.326;2022-08-19T04:06:47;24.60;;;20.90;;
5483;SDS011;2764;48.794;8.326;2022-08-19T04:07:49;23.97;;;21.03;;
5483;SDS011;2764;48.794;8.326;2022-08-19T04:08:52;23.87;;;21.30;;
5483;SDS011;2764;48.794;8.326;2022-08-19T04:09:55;24.33;;;21.80;;
5483;SDS011;2764;48.794;8.326;2022-08-19T04:10:56;23.33;;;20.47;;
5483;SDS011;2764;48.794;8.326;2022-08-19T04:11:58;24.17;;;20.80;;
5483;SDS011;2764;48.794;8.326;2022-08-19T04:13:00;23.53;;;21.13;;
5483;SDS011;2764;48.794;8.326;2022-08-19T04:14:01;23.77;;;21.27;;
5483;SDS011;2764;48.794;8.326;2022-08-19T04:15:04;24.07;;;21.37;;
5483;SDS011;2764;48.794;8.326;2022-08-19T04:16:07;25.57;;;20.90;;
5483;SDS011;2764;48.794;8.326;2022-08-19T04:17:11;23.20;;;20.67;;
5483;SDS011;2764;48.794;8.326;2022-08-19T04:18:13;25.23;;;21.60;;
5483;SDS011;2764;48.794;8.326;2022-08-19T04:19:15;24.67;;;21.50;;
5483;SDS011;2764;48.794;8.326;2022-08-19T04:20:18;25.33;;;22.33;;
5483;SDS011;2764;48.794;8.326;2022-08-19T04:21:21;23.10;;;20.10;;
5483;SDS011;2764;48.794;8.326;2022-08-19T04:22:24;24.07;;;21.60;;
5483;SDS011;2764;48.794;8.326;2022-08-19T04:23:27;24.83;;;21.53;;
5483;SDS011;2764;48.794;8.326;2022-08-19T04:24:33;23.63;;;21.13;;
5483;SDS011;2764;48.794;8.326;2022-08-19T04:25:39;25.20;;;21.60;;
5483;SDS011;2764;48.794;8.326;2022-08-19T04:26:43;31.10;;;22.23;;
5483;SDS011;2764;48.794;8.326;2022-08-19T04:27:45;22.27;;;19.93;;
5483;SDS011;2764;48.794;8.326;2022-08-19T04:28:47;26.07;;;21.17;;
5483;SDS011;2764;48.794;8.326;2022-08-19T04:29:50;24.20;;;20.20;;
5483;SDS011;2764;48.794;8.326;2022-08-19T04:30:52;23.77;;;21.40;;
5483;SDS011;2764;48.794;8.326;2022-08-19T04:31:55;23.43;;;21.13;;
5483;SDS011;2764;48.794;8.326;2022-08-19T04:32:58;23.50;;;21.13;;
5483;SDS011;2764;48.794;8.326;2022-08-19T04:34:00;22.60;;;20.30;;
5483;SDS011;2764;48.794;8.326;2022-08-19T04:35:06;25.10;;;22.60;;
5483;SDS011;2764;48.794;8.326;2022-08-19T04:36:23;24.07;;;21.67;;
5483;SDS011;2764;48.794;8.326;2022-08-19T04:37:27;24.57;;;21.03;;
5483;SDS011;2764;48.794;8.326;2022-08-19T04:38:35;25.40;;;22.60;;
5483;SDS011;2764;48.794;8.326;2022-08-19T04:39:37;25.63;;;22.93;;
5483;SDS011;2764;48.794;8.326;2022-08-19T04:41:02;24.43;;;22.07;;
5483;SDS011;2764;48.794;8.326;2022-08-19T04:42:23;23.90;;;21.33;;
5483;SDS011;2764;48.794;8.326;2022-08-19T04:43:40;30.70;;;22.60;;
5483;SDS011;2764;48.794;8.326;2022-08-19T04:44:42;26.10;;;21.77;;
5483;SDS011;2764;48.794;8.326;2022-08-19T04:45:46;24.00;;;21.50;;
5483;SDS011;2764;48.794;8.326;2022-08-19T04:46:49;23.13;;;20.80;;
5483;SDS011;2764;48.794;8.326;2022-08-19T04:47:54;24.30;;;21.70;;
5483;SDS011;2764;48.794;8.326;2022-08-19T04:49:20;25.60;;;20.97;;
5483;SDS011;2764;48.794;8.326;2022-08-19T04:50:27;28.83;;;23.33;;
5483;SDS011;2764;48.794;8.326;2022-08-19T04:51:28;24.10;;;21.50;;
5483;SDS011;2764;48.794;8.326;2022-08-19T04:52:32;24.33;;;19.77;;
5483;SDS011;2764;48.794;8.326;2022-08-19T04:53:34;21.27;;;19.17;;
5483;SDS011;2764;48.794;8.326;2022-08-19T04:54:38;23.93;;;21.53;;
5483;SDS011;2764;48.794;8.326;2022-08-19T04:55:41;24.00;;;21.20;;
5483;SDS011;2764;48.794;8.326;2022-08-19T04:56:43;23.87;;;21.47;;
5483;SDS011;2764;48.794;8.326;2022-08-19T04:58:54;22.83;;;20.53;;
5483;SDS011;2764;48.794;8.326;2022-08-19T04:59:57;22.57;;;20.37;;
5483;SDS011;2764;48.794;8.326;2022-08-19T05:00:59;24.33;;;21.70;;
5483;SDS011;2764;48.794;8.326;2022-08-19T05:02:03;22.23;;;19.93;;
5483;SDS011;2764;48.794;8.326;2022-08-19T05:03:05;26.70;;;21.43;;
5483;SDS011;2764;48.794;8.326;2022-08-19T05:04:08;22.33;;;20.03;;
5483;SDS011;2764;48.794;8.326;2022-08-19T05:05:10;22.93;;;20.60;;
5483;SDS011;2764;48.794;8.326;2022-08-19T05:06:13;23.33;;;20.33;;
5483;SDS011;2764;48.794;8.326;2022-08-19T05:07:16;26.07;;;21.13;;
5483;SDS011;2764;48.794;8.326;2022-08-19T05:08:19;24.47;;;21.63;;
5483;SDS011;2764;48.794;8.326;2022-08-19T05:09:31;23.37;;;19.27;;
5483;SDS011;2764;48.794;8.326;2022-08-19T05:10:53;23.10;;;20.70;;
5483;SDS011;2764;48.794;8.326;2022-08-19T05:11:55;22.67;;;19.77;;
5483;SDS011;2764;48.794;8.326;2022-08-19T05:12:56;27.00;;;19.80;;
5483;SDS011;2764;48.794;8.326;2022-08-19T05:13:59;22.07;;;19.90;;
5483;SDS011;2764;48.794;8.326;2022-08-19T05:15:03;24.53;;;20.77;;
5483;SDS011;2764;48.794;8.326;2022-08-19T05:16:06;24.20;;;21.47;;
5483;SDS011;2764;48.794;8.326;2022-08-19T05:17:08;23.53;;;21.00;;
5483;SDS011;2764;48.794;8.326;2022-08-19T05:18:28;24.90;;;21.77;;
5483;SDS011;2764;48.794;8.326;2022-08-19T05:19:48;24.23;;;21.47;;
5483;SDS011;2764;48.794;8.326;2022-08-19T05:21:08;22.87;;;20.50;;
5483;SDS011;2764;48.794;8.326;2022-08-19T05:22:30;22.73;;;19.13;;
5483;SDS011;2764;48.794;8.326;2022-08-19T05:23:38;24.87;;;19.77;;
5483;SDS011;2764;48.794;8.326;2022-08-19T05:24:40;26.90;;;18.97;;
5483;SDS011;2764;48.794;8.326;2022-08-19T05:26:02;21.77;;;19.60;;
5483;SDS011;2764;48.794;8.326;2022-08-19T05:27:03;25.40;;;20.03;;
5483;SDS011;2764;48.794;8.326;2022-08-19T05:28:06;29.17;;;22.27;;
5483;SDS011;2764;48.794;8.326;2022-08-19T05:29:08;23.87;;;21.00;;
5483;SDS011;2764;48.794;8.326;2022-08-19T05:30:11;26.87;;;20.97;;
5483;SDS011;2764;48.794;8.326;2022-08-19T05:31:13;21.30;;;19.00;;
5483;SDS011;2764;48.794;8.326;2022-08-19T05:32:15;21.93;;;19.40;;
5483;SDS011;2764;48.794;8.326;2022-08-19T05:33:17;26.00;;;20.30;;
5483;SDS011;2764;48.794;8.326;2022-08-19T05:34:20;24.00;;;20.93;;
5483;SDS011;2764;48.794;8.326;2022-08-19T05:35:24;23.23;;;20.20;;
5483;SDS011;2764;48.794;8.326;2022-08-19T05:36:26;22.00;;;19.67;;
5483;SDS011;2764;48.794;8.326;2022-08-19T05:37:29;24.50;;;20.00;;
5483;SDS011;2764;48.794;8.326;2022-08-19T05:38:31;23.87;;;20.10;;
5483;SDS011;2764;48.794;8.326;2022-08-19T05:39:37;23.63;;;20.43;;
5483;SDS011;2764;48.794;8.326;2022-08-19T05:40:39;23.27;;;20.43;;
5483;SDS011;2764;48.794;8.326;2022-08-19T05:41:42;25.60;;;20.47;;
5483;SDS011;2764;48.794;8.326;2022-08-19T05:42:44;23.43;;;21.00;;
5483;SDS011;2764;48.794;8.326;2022-08-19T05:44:00;22.87;;;20.47;;
5483;SDS011;2764;48.794;8.326;2022-08-19T05:45:04;24.97;;;22.40;;
5483;SDS011;2764;48.794;8.326;2022-08-19T05:46:06;22.20;;;19.80;;
5483;SDS011;2764;48.794;8.326;2022-08-19T05:47:08;22.67;;;20.10;;
5483;SDS011;2764;48.794;8.326;2022-08-19T05:48:10;24.10;;;21.10;;
5483;SDS011;2764;48.794;8.326;2022-08-19T05:49:12;22.60;;;20.30;;
5483;SDS011;2764;48.794;8.326;2022-08-19T05:50:16;27.80;;;20.23;;
5483;SDS011;2764;48.794;8.326;2022-08-19T05:51:18;25.67;;;21.90;;
5483;SDS011;2764;48.794;8.326;2022-08-19T05:52:20;24.40;;;21.07;;
5483;SDS011;2764;48.794;8.326;2022-08-19T05:53:26;22.03;;;18.83;;
5483;SDS011;2764;48.794;8.326;2022-08-19T05:54:27;21.93;;;19.63;;
5483;SDS011;2764;48.794;8.326;2022-08-19T05:55:29;30.80;;;20.57;;
5483;SDS011;2764;48.794;8.326;2022-08-19T05:56:31;23.40;;;19.20;;
5483;SDS011;2764;48.794;8.326;2022-08-19T05:57:33;24.50;;;21.87;;
5483;SDS011;2764;48.794;8.326;2022-08-19T05:58:35;23.80;;;20.90;;
5483;SDS011;2764;48.794;8.326;2022-08-19T05:59:37;23.20;;;20.33;;
5483;SDS011;2764;48.794;8.326;2022-08-19T06:00:39;22.27;;;19.63;;
5483;SDS011;2764;48.794;8.326;2022-08-19T06:01:44;30.00;;;21.10;;
5483;SDS011;2764;48.794;8.326;2022-08-19T06:02:47;28.60;;;22.73;;
5483;SDS011;2764;48.794;8.326;2022-08-19T06:03:49;24.93;;;22.13;;
5483;SDS011;2764;48.794;8.326;2022-08-19T06:04:50;33.60;;;22.63;;
5483;SDS011;2764;48.794;8.326;2022-08-19T06:05:52;27.03;;;22.77;;
5483;SDS011;2764;48.794;8.326;2022-08-19T06:06:54;27.30;;;21.77;;
5483;SDS011;2764;48.794;8.326;2022-08-19T06:07:57;23.90;;;20.90;;
5483;SDS011;2764;48.794;8.326;2022-08-19T06:09:05;24.57;;;20.50;;
5483;SDS011;2764;48.794;8.326;2022-08-19T06:10:09;25.00;;;21.23;;
5483;SDS011;2764;48.794;8.326;2022-08-19T06:11:16;25.87;;;22.27;;
5483;SDS011;2764;48.794;8.326;2022-08-19T06:12:22;24.73;;;21.37;;
5483;SDS011;2764;48.794;8.326;2022-08-19T06:13:29;27.20;;;21.60;;
5483;SDS011;2764;48.794;8.326;2022-08-19T06:14:36;30.23;;;23.10;;
5483;SDS011;2764;48.794;8.326;2022-08-19T06:15:42;25.37;;;22.63;;
5483;SDS011;2764;48.794;8.326;2022-08-19T06:16:45;27.73;;;23.50;;
5483;SDS011;2764;48.794;8.326;2022-08-19T06:17:47;31.70;;;23.30;;
5483;SDS011;2764;48.794;8.326;2022-08-19T06:18:50;31.40;;;22.20;;
5483;SDS011;2764;48.794;8.326;2022-08-19T06:19:55;27.13;;;21.63;;
5483;SDS011;2764;48.794;8.326;2022-08-19T06:20:57;32.67;;;23.37;;
5483;SDS011;2764;48.794;8.326;2022-08-19T06:21:59;24.50;;;22.10;;
5483;SDS011;2764;48.794;8.326;2022-08-19T06:23:02;28.80;;;23.33;;
5483;SDS011;2764;48.794;8.326;2022-08-19T06:24:04;26.93;;;21.43;;
5483;SDS011;2764;48.794;8.326;2022-08-19T06:25:07;24.77;;;22.17;;
5483;SDS011;2764;48.794;8.326;2022-08-19T06:26:13;23.87;;;21.30;;
5483;SDS011;2764;48.794;8.326;2022-08-19T06:27:16;25.43;;;20.30;;
5483;SDS011;2764;48.794;8.326;2022-08-19T06:28:18;22.87;;;20.53;;
5483;SDS011;2764;48.794;8.326;2022-08-19T06:29:21;24.43;;;21.60;;
5483;SDS011;2764;48.794;8.326;2022-08-19T06:30:25;27.17;;;22.13;;
5483;SDS011;2764;48.794;8.326;2022-08-19T06:31:27;23.70;;;21.27;;
5483;SDS011;2764;48.794;8.326;2022-08-19T06:32:30;27.33;;;21.50;;